Time,TemperatureF,DewpointF,PressureIn,WindDirection,WindDirectionDegrees,WindSpeedMPH,WindSpeedGustMPH,Humidity,HourlyPrecipIn,Conditions,Clouds,dailyrainin,SolarRadiationWatts/m^2,SoftwareType,DateUTC
2013-07-01 00:11:00,70.2,69.0,29.90,WSW,254,0.0,4.0,97,0.00,,,0.00,0,weatherlink.com 1.10,2013-07-01 04:11:00,
2013-07-01 00:26:00,70.2,69.0,29.90,SW,233,1.0,6.0,97,0.00,,,0.00,0,weatherlink.com 1.10,2013-07-01 04:26:00,
2013-07-01 00:42:00,70.2,69.0,29.90,SW,230,3.0,7.0,97,0.00,,,0.00,0,weatherlink.com 1.10,2013-07-01 04:42:00,
2013-07-01 00:58:00,70.1,69.0,29.90,SSW,209,0.0,4.0,97,0.00,,,0.00,0,weatherlink.com 1.10,2013-07-01 04:58:00,
2013-07-01 01:14:00,70.1,69.0,29.91,West,267,0.0,6.0,97,0.00,,,0.00,0,weatherlink.com 1.10,2013-07-01 05:14:00,
2013-07-01 01:31:00,70.0,69.0,29.91,SW,215,0.0,4.0,97,0.00,,,0.00,0,weatherlink.com 1.10,2013-07-01 05:31:00,
2013-07-01 01:47:00,69.9,69.0,29.91,West,262,1.0,3.0,97,0.00,,,0.00,0,weatherlink.com 1.10,2013-07-01 05:47:00,
2013-07-01 02:02:00,69.7,69.0,29.91,SW,222,0.0,2.0,97,0.00,,,0.00,0,weatherlink.com 1.10,2013-07-01 06:02:00,
2013-07-01 02:18:00,69.6,69.0,29.91,SSW,198,1.0,3.0,97,0.00,,,0.00,0,weatherlink.com 1.10,2013-07-01 06:18:00,
2013-07-01 02:34:00,69.7,69.0,29.90,SSW,208,0.0,2.0,97,0.00,,,0.00,0,weatherlink.com 1.10,2013-07-01 06:34:00,
2013-07-01 02:50:00,69.6,69.0,29.90,SW,231,0.0,2.0,97,0.00,,,0.00,0,weatherlink.com 1.10,2013-07-01 06:50:00,
2013-07-01 03:07:00,69.4,69.0,29.90,SW,227,0.0,2.0,97,0.00,,,0.00,0,weatherlink.com 1.10,2013-07-01 07:07:00,
2013-07-01 03:23:00,69.5,69.0,29.90,South,188,0.0,3.0,98,0.00,,,0.00,0,weatherlink.com 1.10,2013-07-01 07:23:00,
2013-07-01 03:39:00,69.6,69.0,29.90,SSW,194,0.0,2.0,98,0.00,,,0.00,0,weatherlink.com 1.10,2013-07-01 07:39:00,
2013-07-01 03:55:00,69.5,69.0,29.90,SSW,194,0.0,1.0,98,0.00,,,0.00,0,weatherlink.com 1.10,2013-07-01 07:55:00,
2013-07-01 04:11:00,69.5,69.0,29.90,SSW,194,1.0,3.0,98,0.00,,,0.00,0,weatherlink.com 1.10,2013-07-01 08:11:00,
2013-07-01 04:27:00,69.4,69.0,29.90,South,191,0.0,2.0,98,0.00,,,0.00,0,weatherlink.com 1.10,2013-07-01 08:27:00,
2013-07-01 04:43:00,69.5,69.0,29.91,South,188,0.0,3.0,98,0.00,,,0.00,0,weatherlink.com 1.10,2013-07-01 08:43:00,
2013-07-01 04:59:00,69.5,69.0,29.91,South,188,0.0,1.0,98,0.00,,,0.00,0,weatherlink.com 1.10,2013-07-01 08:59:00,
2013-07-01 05:15:00,69.6,69.0,29.91,South,188,0.0,1.0,98,0.00,,,0.00,0,weatherlink.com 1.10,2013-07-01 09:15:00,
2013-07-01 05:30:00,69.6,69.0,29.92,South,188,0.0,1.0,98,0.00,,,0.00,0,weatherlink.com 1.10,2013-07-01 09:30:00,
2013-07-01 05:47:00,69.6,69.0,29.92,South,188,0.0,2.0,98,0.00,,,0.00,7,weatherlink.com 1.10,2013-07-01 09:47:00,
2013-07-01 06:03:00,69.7,69.0,29.92,South,188,2.0,2.0,99,0.00,,,0.00,5,weatherlink.com 1.10,2013-07-01 10:03:00,
2013-07-01 06:19:00,69.6,69.0,29.93,South,188,2.0,3.0,99,0.00,,,0.00,14,weatherlink.com 1.10,2013-07-01 10:19:00,
2013-07-01 06:35:00,69.8,70.0,29.93,SE,144,2.0,4.0,99,0.00,,,0.00,16,weatherlink.com 1.10,2013-07-01 10:35:00,
2013-07-01 06:51:00,69.9,70.0,29.93,SE,144,0.0,4.0,99,0.00,,,0.00,14,weatherlink.com 1.10,2013-07-01 10:51:00,
2013-07-01 07:08:00,69.9,70.0,29.93,SSE,157,2.0,4.0,99,0.00,,,0.00,40,weatherlink.com 1.10,2013-07-01 11:08:00,
2013-07-01 07:23:00,70.2,70.0,29.93,SSE,156,1.0,4.0,99,0.00,,,0.00,40,weatherlink.com 1.10,2013-07-01 11:23:00,
2013-07-01 07:39:00,70.3,70.0,29.93,SSE,167,1.0,4.0,99,0.00,,,0.00,62,weatherlink.com 1.10,2013-07-01 11:39:00,
2013-07-01 07:55:00,70.5,70.0,29.94,SSE,157,1.0,4.0,99,0.00,,,0.00,70,weatherlink.com 1.10,2013-07-01 11:55:00,
2013-07-01 08:12:00,70.9,71.0,29.94,SE,132,4.0,6.0,99,0.01,,,0.01,84,weatherlink.com 1.10,2013-07-01 12:12:00,
2013-07-01 08:28:00,70.7,70.0,29.94,SSE,153,5.0,8.0,99,0.01,,,0.01,49,weatherlink.com 1.10,2013-07-01 12:28:00,
2013-07-01 08:44:00,70.8,71.0,29.94,SSE,163,1.0,8.0,99,0.01,,,0.01,127,weatherlink.com 1.10,2013-07-01 12:44:00,
2013-07-01 09:00:00,71.2,71.0,29.95,South,171,3.0,5.0,99,0.01,,,0.01,63,weatherlink.com 1.10,2013-07-01 13:00:00,
2013-07-01 09:16:00,71.5,71.0,29.95,SE,146,1.0,7.0,99,0.00,,,0.01,91,weatherlink.com 1.10,2013-07-01 13:16:00,
2013-07-01 09:31:00,71.8,71.0,29.95,SSE,150,3.0,7.0,98,0.00,,,0.01,79,weatherlink.com 1.10,2013-07-01 13:31:00,
2013-07-01 09:48:00,71.9,71.0,29.95,SSE,151,5.0,7.0,98,0.00,,,0.01,81,weatherlink.com 1.10,2013-07-01 13:48:00,
2013-07-01 10:04:00,72.0,71.0,29.95,SSE,151,0.0,6.0,98,0.00,,,0.01,58,weatherlink.com 1.10,2013-07-01 14:04:00,
2013-07-01 10:20:00,72.0,71.0,29.95,SSE,159,1.0,5.0,97,0.00,,,0.01,91,weatherlink.com 1.10,2013-07-01 14:20:00,
2013-07-01 10:36:00,72.3,71.0,29.94,SSE,150,7.0,8.0,97,0.00,,,0.01,70,weatherlink.com 1.10,2013-07-01 14:36:00,
2013-07-01 10:54:00,72.0,71.0,29.96,NW,309,2.0,9.0,97,0.14,,,0.15,5,weatherlink.com 1.10,2013-07-01 14:54:00,
2013-07-01 11:09:00,70.3,69.0,29.96,WSW,250,1.0,7.0,96,0.20,,,0.21,16,weatherlink.com 1.10,2013-07-01 15:09:00,
2013-07-01 11:24:00,69.1,68.0,29.96,West,264,0.0,6.0,97,0.32,,,0.33,9,weatherlink.com 1.10,2013-07-01 15:24:00,
2013-07-01 11:40:00,68.5,68.0,29.96,West,279,1.0,4.0,98,0.72,,,0.73,12,weatherlink.com 1.10,2013-07-01 15:40:00,
2013-07-01 11:56:00,68.3,68.0,29.96,West,268,0.0,3.0,98,0.64,,,0.81,32,weatherlink.com 1.10,2013-07-01 15:56:00,
2013-07-01 12:13:00,68.6,68.0,29.95,West,268,0.0,2.0,99,0.57,,,0.82,23,weatherlink.com 1.10,2013-07-01 16:13:00,
2013-07-01 12:29:00,68.8,69.0,29.95,West,268,0.0,0.0,99,0.48,,,0.84,105,weatherlink.com 1.10,2013-07-01 16:29:00,
2013-07-01 12:44:00,69.8,70.0,29.95,SW,223,0.0,3.0,99,0.06,,,0.84,155,weatherlink.com 1.10,2013-07-01 16:44:00,
2013-07-01 13:16:00,70.0,70.0,29.95,SW,217,0.0,1.0,99,0.03,,,0.86,65,weatherlink.com 1.10,2013-07-01 17:16:00,
2013-07-01 13:33:00,70.3,70.0,29.95,SW,217,0.0,0.0,99,0.04,,,0.88,156,weatherlink.com 1.10,2013-07-01 17:33:00,
2013-07-01 13:49:00,70.7,70.0,29.95,SW,221,0.0,2.0,99,0.04,,,0.88,109,weatherlink.com 1.10,2013-07-01 17:49:00,
2013-07-01 14:05:00,71.6,72.0,29.95,West,271,2.0,3.0,100,0.03,,,0.88,246,weatherlink.com 1.10,2013-07-01 18:05:00,
2013-07-01 14:21:00,71.8,72.0,29.96,SW,221,1.0,5.0,99,0.01,,,0.88,121,weatherlink.com 1.10,2013-07-01 18:21:00,
2013-07-01 14:36:00,72.2,72.0,29.96,WSW,252,0.0,4.0,100,0.00,,,0.88,207,weatherlink.com 1.10,2013-07-01 18:36:00,
2013-07-01 14:52:00,72.4,72.0,29.96,SW,216,0.0,6.0,99,0.00,,,0.88,281,weatherlink.com 1.10,2013-07-01 18:52:00,
2013-07-01 15:09:00,72.7,72.0,29.97,ESE,117,3.0,5.0,99,0.01,,,0.89,251,weatherlink.com 1.10,2013-07-01 19:09:00,
2013-07-01 15:25:00,72.4,72.0,29.97,SW,214,2.0,8.0,99,0.01,,,0.89,225,weatherlink.com 1.10,2013-07-01 19:25:00,
2013-07-01 15:41:00,72.3,72.0,29.97,SSW,211,3.0,6.0,98,0.01,,,0.89,107,weatherlink.com 1.10,2013-07-01 19:41:00,
2013-07-01 15:57:00,72.4,72.0,29.97,SW,219,0.0,5.0,99,0.01,,,0.89,163,weatherlink.com 1.10,2013-07-01 19:57:00,
2013-07-01 16:13:00,72.2,72.0,29.97,SW,221,1.0,6.0,98,0.00,,,0.89,107,weatherlink.com 1.10,2013-07-01 20:13:00,
2013-07-01 16:29:00,72.3,72.0,29.97,South,170,1.0,6.0,99,0.00,,,0.89,132,weatherlink.com 1.10,2013-07-01 20:29:00,
2013-07-01 16:45:00,72.3,72.0,29.97,SW,219,0.0,6.0,98,0.00,,,0.89,156,weatherlink.com 1.10,2013-07-01 20:45:00,
2013-07-01 17:01:00,72.7,72.0,29.96,SSW,203,0.0,6.0,98,0.01,,,0.90,158,weatherlink.com 1.10,2013-07-01 21:01:00,
2013-07-01 17:17:00,72.4,72.0,29.96,SSE,159,0.0,7.0,98,0.01,,,0.90,100,weatherlink.com 1.10,2013-07-01 21:17:00,
2013-07-01 17:33:00,72.1,72.0,29.96,WSW,255,1.0,9.0,98,0.01,,,0.90,102,weatherlink.com 1.10,2013-07-01 21:33:00,
2013-07-01 17:50:00,71.9,71.0,29.97,SSW,213,0.0,5.0,98,0.01,,,0.90,26,weatherlink.com 1.10,2013-07-01 21:50:00,
2013-07-01 18:06:00,71.6,71.0,29.97,SSE,161,3.0,5.0,98,0.00,,,0.90,30,weatherlink.com 1.10,2013-07-01 22:06:00,
2013-07-01 18:21:00,71.5,71.0,29.98,SW,216,1.0,7.0,99,0.00,,,0.90,47,weatherlink.com 1.10,2013-07-01 22:21:00,
2013-07-01 18:37:00,71.5,71.0,29.98,SSE,155,1.0,6.0,99,0.00,,,0.90,63,weatherlink.com 1.10,2013-07-01 22:37:00,
2013-07-01 18:53:00,71.5,71.0,29.99,SW,221,2.0,6.0,99,0.00,,,0.90,79,weatherlink.com 1.10,2013-07-01 22:53:00,
2013-07-01 19:09:00,71.7,71.0,29.99,SW,236,1.0,4.0,99,0.00,,,0.90,76,weatherlink.com 1.10,2013-07-01 23:09:00,
2013-07-01 19:26:00,71.6,71.0,29.99,South,178,1.0,4.0,98,0.00,,,0.90,32,weatherlink.com 1.10,2013-07-01 23:26:00,
2013-07-01 19:42:00,71.4,71.0,30.00,SSW,202,2.0,8.0,98,0.00,,,0.90,26,weatherlink.com 1.10,2013-07-01 23:42:00,
2013-07-01 19:58:00,71.1,71.0,30.00,SW,215,0.0,6.0,98,0.00,,,0.90,7,weatherlink.com 1.10,2013-07-01 23:58:00,
2013-07-01 20:13:00,70.9,70.0,30.00,SW,225,0.0,4.0,98,0.00,,,0.90,0,weatherlink.com 1.10,2013-07-02 00:13:00,
2013-07-01 20:29:00,70.9,70.0,30.01,SSW,197,0.0,3.0,98,0.00,,,0.90,0,weatherlink.com 1.10,2013-07-02 00:29:00,
2013-07-01 20:46:00,70.7,70.0,30.01,South,190,2.0,5.0,99,0.00,,,0.90,0,weatherlink.com 1.10,2013-07-02 00:46:00,
2013-07-01 21:02:00,70.6,70.0,30.02,SSW,204,2.0,6.0,99,0.00,,,0.90,0,weatherlink.com 1.10,2013-07-02 01:02:00,
2013-07-01 21:18:00,70.4,70.0,30.02,SSW,211,4.0,7.0,99,0.00,,,0.90,0,weatherlink.com 1.10,2013-07-02 01:18:00,
2013-07-01 21:34:00,70.4,70.0,30.02,West,267,5.0,6.0,99,0.00,,,0.90,0,weatherlink.com 1.10,2013-07-02 01:34:00,
2013-07-01 21:50:00,70.4,70.0,30.03,South,180,1.0,4.0,99,0.00,,,0.90,0,weatherlink.com 1.10,2013-07-02 01:50:00,
2013-07-01 22:06:00,70.2,70.0,30.03,South,173,2.0,7.0,99,0.00,,,0.90,0,weatherlink.com 1.10,2013-07-02 02:06:00,
2013-07-01 22:22:00,70.0,70.0,30.04,SSW,209,1.0,4.0,99,0.00,,,0.90,0,weatherlink.com 1.10,2013-07-02 02:22:00,
2013-07-01 22:38:00,69.9,70.0,30.03,SW,227,4.0,4.0,99,0.00,,,0.90,0,weatherlink.com 1.10,2013-07-02 02:38:00,
2013-07-01 22:55:00,69.8,70.0,30.03,SW,221,0.0,4.0,99,0.00,,,0.90,0,weatherlink.com 1.10,2013-07-02 02:55:00,
2013-07-01 23:10:00,69.8,70.0,30.03,West,275,0.0,6.0,99,0.00,,,0.90,0,weatherlink.com 1.10,2013-07-02 03:10:00,
2013-07-01 23:26:00,69.7,69.0,30.03,SSW,207,0.0,4.0,99,0.00,,,0.90,0,weatherlink.com 1.10,2013-07-02 03:26:00,
2013-07-01 23:42:00,69.7,69.0,30.03,WSW,238,2.0,6.0,99,0.00,,,0.90,0,weatherlink.com 1.10,2013-07-02 03:42:00,
2013-07-01 23:58:00,69.8,70.0,30.03,SW,219,1.0,4.0,99,0.00,,,0.90,0,weatherlink.com 1.10,2013-07-02 03:58:00,